sensor_id;sensor_type;location;lat;lon;timestamp;temperature;humidity
35635;DHT22;21757;43.610;1.440;2024-02-16T00:00:53;13.10;99.90
35635;DHT22;21757;43.610;1.440;2024-02-16T00:03:19;13.20;99.90
35635;DHT22;21757;43.610;1.440;2024-02-16T00:05:46;13.20;99.90
35635;DHT22;21757;43.610;1.440;2024-02-16T00:08:12;13.20;1.00
35635;DHT22;21757;43.610;1.440;2024-02-16T00:10:38;13.20;99.90
35635;DHT22;21757;43.610;1.440;2024-02-16T00:13:04;13.20;99.90
35635;DHT22;21757;43.610;1.440;2024-02-16T00:15:30;13.30;99.90
35635;DHT22;21757;43.610;1.440;2024-02-16T00:17:55;13.30;99.90
35635;DHT22;21757;43.610;1.440;2024-02-16T00:20:21;13.30;99.90
35635;DHT22;21757;43.610;1.440;2024-02-16T00:22:49;13.20;99.90
35635;DHT22;21757;43.610;1.440;2024-02-16T00:25:15;13.30;99.90
35635;DHT22;21757;43.610;1.440;2024-02-16T00:27:42;13.30;99.90
35635;DHT22;21757;43.610;1.440;2024-02-16T00:30:08;13.30;99.90
35635;DHT22;21757;43.610;1.440;2024-02-16T00:32:35;13.30;99.90
35635;DHT22;21757;43.610;1.440;2024-02-16T00:35:02;13.30;99.90
35635;DHT22;21757;43.610;1.440;2024-02-16T00:37:28;13.30;99.90
35635;DHT22;21757;43.610;1.440;2024-02-16T00:39:54;13.30;99.90
35635;DHT22;21757;43.610;1.440;2024-02-16T00:42:20;13.30;99.90
35635;DHT22;21757;43.610;1.440;2024-02-16T00:44:48;13.30;99.90
35635;DHT22;21757;43.610;1.440;2024-02-16T00:47:14;13.20;99.90
35635;DHT22;21757;43.610;1.440;2024-02-16T00:49:42;13.20;99.90
35635;DHT22;21757;43.610;1.440;2024-02-16T00:52:08;13.20;99.90
35635;DHT22;21757;43.610;1.440;2024-02-16T00:54:36;13.20;99.90
35635;DHT22;21757;43.610;1.440;2024-02-16T00:57:01;13.20;99.90
35635;DHT22;21757;43.610;1.440;2024-02-16T00:59:28;13.20;99.90
35635;DHT22;21757;43.610;1.440;2024-02-16T01:01:54;13.20;99.90
35635;DHT22;21757;43.610;1.440;2024-02-16T01:04:20;13.20;99.90
35635;DHT22;21757;43.610;1.440;2024-02-16T01:06:45;13.20;99.90
35635;DHT22;21757;43.610;1.440;2024-02-16T01:09:11;13.20;99.90
35635;DHT22;21757;43.610;1.440;2024-02-16T01:11:40;13.20;99.90
35635;DHT22;21757;43.610;1.440;2024-02-16T01:14:06;13.20;99.90
35635;DHT22;21757;43.610;1.440;2024-02-16T01:16:32;13.20;99.90
35635;DHT22;21757;43.610;1.440;2024-02-16T01:18:58;13.20;99.90
35635;DHT22;21757;43.610;1.440;2024-02-16T01:21:24;13.20;99.90
35635;DHT22;21757;43.610;1.440;2024-02-16T01:23:49;13.20;99.90
35635;DHT22;21757;43.610;1.440;2024-02-16T01:26:15;13.10;99.90
35635;DHT22;21757;43.610;1.440;2024-02-16T01:28:41;13.10;99.90
35635;DHT22;21757;43.610;1.440;2024-02-16T01:31:07;13.00;99.90
35635;DHT22;21757;43.610;1.440;2024-02-16T01:33:35;13.00;99.90
35635;DHT22;21757;43.610;1.440;2024-02-16T01:36:02;13.00;99.90
35635;DHT22;21757;43.610;1.440;2024-02-16T01:38:27;13.10;99.90
35635;DHT22;21757;43.610;1.440;2024-02-16T01:40:53;13.10;99.90
35635;DHT22;21757;43.610;1.440;2024-02-16T01:43:19;13.10;99.90
35635;DHT22;21757;43.610;1.440;2024-02-16T01:45:45;13.10;99.90
35635;DHT22;21757;43.610;1.440;2024-02-16T01:48:12;13.20;99.90
35635;DHT22;21757;43.610;1.440;2024-02-16T01:50:38;13.10;99.90
35635;DHT22;21757;43.610;1.440;2024-02-16T01:53:04;13.10;99.90
35635;DHT22;21757;43.610;1.440;2024-02-16T01:55:30;13.20;99.90
35635;DHT22;21757;43.610;1.440;2024-02-16T01:57:58;13.20;99.90
35635;DHT22;21757;43.610;1.440;2024-02-16T02:00:24;13.20;99.90
35635;DHT22;21757;43.610;1.440;2024-02-16T02:02:51;13.20;99.90
35635;DHT22;21757;43.610;1.440;2024-02-16T02:05:17;13.20;99.90
35635;DHT22;21757;43.610;1.440;2024-02-16T02:07:43;13.20;99.90
35635;DHT22;21757;43.610;1.440;2024-02-16T02:10:09;13.20;99.90
35635;DHT22;21757;43.610;1.440;2024-02-16T02:12:37;13.20;99.90
35635;DHT22;21757;43.610;1.440;2024-02-16T02:15:04;13.20;99.90
35635;DHT22;21757;43.610;1.440;2024-02-16T02:17:30;13.20;99.90
35635;DHT22;21757;43.610;1.440;2024-02-16T02:19:56;13.20;99.90
35635;DHT22;21757;43.610;1.440;2024-02-16T02:22:21;13.20;99.90
35635;DHT22;21757;43.610;1.440;2024-02-16T02:24:48;13.20;99.90
35635;DHT22;21757;43.610;1.440;2024-02-16T02:27:16;13.20;99.90
35635;DHT22;21757;43.610;1.440;2024-02-16T02:29:42;13.20;99.90
35635;DHT22;21757;43.610;1.440;2024-02-16T02:32:09;13.20;99.90
35635;DHT22;21757;43.610;1.440;2024-02-16T02:34:35;13.20;99.90
35635;DHT22;21757;43.610;1.440;2024-02-16T02:37:04;13.20;99.90
35635;DHT22;21757;43.610;1.440;2024-02-16T02:39:30;13.20;99.90
35635;DHT22;21757;43.610;1.440;2024-02-16T02:41:56;13.20;99.90
35635;DHT22;21757;43.610;1.440;2024-02-16T02:44:23;13.20;99.90
35635;DHT22;21757;43.610;1.440;2024-02-16T02:46:49;13.20;99.90
35635;DHT22;21757;43.610;1.440;2024-02-16T02:49:15;13.20;99.90
35635;DHT22;21757;43.610;1.440;2024-02-16T02:51:40;13.20;99.90
35635;DHT22;21757;43.610;1.440;2024-02-16T02:54:06;13.20;99.90
35635;DHT22;21757;43.610;1.440;2024-02-16T02:56:31;13.20;99.90
35635;DHT22;21757;43.610;1.440;2024-02-16T02:58:57;13.20;99.90
35635;DHT22;21757;43.610;1.440;2024-02-16T03:01:23;13.20;99.90
35635;DHT22;21757;43.610;1.440;2024-02-16T03:03:48;13.20;99.90
35635;DHT22;21757;43.610;1.440;2024-02-16T03:06:18;13.20;99.90
35635;DHT22;21757;43.610;1.440;2024-02-16T03:08:44;13.20;99.90
35635;DHT22;21757;43.610;1.440;2024-02-16T03:11:10;13.20;99.90
35635;DHT22;21757;43.610;1.440;2024-02-16T03:13:36;13.20;99.90
35635;DHT22;21757;43.610;1.440;2024-02-16T03:16:03;13.20;99.90
35635;DHT22;21757;43.610;1.440;2024-02-16T03:18:33;13.20;99.90
35635;DHT22;21757;43.610;1.440;2024-02-16T03:20:59;13.20;99.90
35635;DHT22;21757;43.610;1.440;2024-02-16T03:23:25;13.20;99.90
35635;DHT22;21757;43.610;1.440;2024-02-16T03:25:51;13.20;99.90
35635;DHT22;21757;43.610;1.440;2024-02-16T03:28:16;13.20;99.90
35635;DHT22;21757;43.610;1.440;2024-02-16T03:30:43;13.20;1.00
35635;DHT22;21757;43.610;1.440;2024-02-16T03:33:09;13.20;1.00
35635;DHT22;21757;43.610;1.440;2024-02-16T03:35:36;13.10;1.00
35635;DHT22;21757;43.610;1.440;2024-02-16T03:38:02;13.10;1.00
35635;DHT22;21757;43.610;1.440;2024-02-16T03:40:28;13.10;1.00
35635;DHT22;21757;43.610;1.440;2024-02-16T03:42:54;13.00;1.00
35635;DHT22;21757;43.610;1.440;2024-02-16T03:45:20;13.00;1.00
35635;DHT22;21757;43.610;1.440;2024-02-16T03:47:46;13.10;1.00
35635;DHT22;21757;43.610;1.440;2024-02-16T03:50:14;13.00;1.00
35635;DHT22;21757;43.610;1.440;2024-02-16T03:52:40;13.00;1.00
35635;DHT22;21757;43.610;1.440;2024-02-16T03:55:07;13.00;1.00
35635;DHT22;21757;43.610;1.440;2024-02-16T03:57:33;12.90;1.00
35635;DHT22;21757;43.610;1.440;2024-02-16T03:59:58;12.90;1.00
35635;DHT22;21757;43.610;1.440;2024-02-16T04:02:24;12.90;1.00
35635;DHT22;21757;43.610;1.440;2024-02-16T04:04:51;12.90;1.00
35635;DHT22;21757;43.610;1.440;2024-02-16T04:07:17;12.90;1.00
35635;DHT22;21757;43.610;1.440;2024-02-16T04:09:42;12.90;1.00
35635;DHT22;21757;43.610;1.440;2024-02-16T04:12:08;12.90;1.00
35635;DHT22;21757;43.610;1.440;2024-02-16T04:14:35;12.90;1.00
35635;DHT22;21757;43.610;1.440;2024-02-16T04:17:01;12.90;1.00
35635;DHT22;21757;43.610;1.440;2024-02-16T04:19:27;12.80;1.00
35635;DHT22;21757;43.610;1.440;2024-02-16T04:21:56;12.80;1.00
35635;DHT22;21757;43.610;1.440;2024-02-16T04:24:24;12.80;1.00
35635;DHT22;21757;43.610;1.440;2024-02-16T04:26:50;12.80;1.00
35635;DHT22;21757;43.610;1.440;2024-02-16T04:29:16;12.80;1.00
35635;DHT22;21757;43.610;1.440;2024-02-16T04:31:42;12.80;1.00
35635;DHT22;21757;43.610;1.440;2024-02-16T04:34:11;12.80;1.00
35635;DHT22;21757;43.610;1.440;2024-02-16T04:36:37;12.80;1.00
35635;DHT22;21757;43.610;1.440;2024-02-16T04:39:03;12.80;1.00
35635;DHT22;21757;43.610;1.440;2024-02-16T04:41:29;12.80;1.00
35635;DHT22;21757;43.610;1.440;2024-02-16T04:43:54;12.80;1.00
35635;DHT22;21757;43.610;1.440;2024-02-16T04:46:20;12.80;1.00
35635;DHT22;21757;43.610;1.440;2024-02-16T04:48:47;12.80;1.00
35635;DHT22;21757;43.610;1.440;2024-02-16T04:51:12;12.70;1.00
35635;DHT22;21757;43.610;1.440;2024-02-16T04:53:38;12.70;1.00
35635;DHT22;21757;43.610;1.440;2024-02-16T04:56:04;12.70;1.00
35635;DHT22;21757;43.610;1.440;2024-02-16T04:58:30;12.70;1.00
35635;DHT22;21757;43.610;1.440;2024-02-16T05:00:56;12.70;1.00
35635;DHT22;21757;43.610;1.440;2024-02-16T05:03:22;12.60;1.00
35635;DHT22;21757;43.610;1.440;2024-02-16T05:05:48;12.60;1.00
35635;DHT22;21757;43.610;1.440;2024-02-16T05:08:14;12.70;1.00
35635;DHT22;21757;43.610;1.440;2024-02-16T05:10:40;12.60;1.00
35635;DHT22;21757;43.610;1.440;2024-02-16T05:13:06;12.60;1.00
35635;DHT22;21757;43.610;1.440;2024-02-16T05:15:31;12.60;1.00
35635;DHT22;21757;43.610;1.440;2024-02-16T05:17:57;12.60;1.00
35635;DHT22;21757;43.610;1.440;2024-02-16T05:20:23;12.60;1.00
35635;DHT22;21757;43.610;1.440;2024-02-16T05:22:49;12.60;1.00
35635;DHT22;21757;43.610;1.440;2024-02-16T05:25:18;12.50;1.00
35635;DHT22;21757;43.610;1.440;2024-02-16T05:27:45;12.50;1.00
35635;DHT22;21757;43.610;1.440;2024-02-16T05:30:12;12.40;1.00
35635;DHT22;21757;43.610;1.440;2024-02-16T05:32:41;12.40;1.00
35635;DHT22;21757;43.610;1.440;2024-02-16T05:35:08;12.40;1.00
35635;DHT22;21757;43.610;1.440;2024-02-16T05:37:41;12.50;1.00
35635;DHT22;21757;43.610;1.440;2024-02-16T05:40:10;12.50;1.00
35635;DHT22;21757;43.610;1.440;2024-02-16T05:42:47;12.60;1.00
35635;DHT22;21757;43.610;1.440;2024-02-16T05:45:16;12.60;1.00
35635;DHT22;21757;43.610;1.440;2024-02-16T05:47:43;12.60;1.00
35635;DHT22;21757;43.610;1.440;2024-02-16T05:50:11;12.60;1.00
35635;DHT22;21757;43.610;1.440;2024-02-16T05:52:40;12.50;1.00
35635;DHT22;21757;43.610;1.440;2024-02-16T05:55:07;12.60;1.00
35635;DHT22;21757;43.610;1.440;2024-02-16T05:57:33;12.50;1.00
35635;DHT22;21757;43.610;1.440;2024-02-16T06:00:00;12.50;1.00
35635;DHT22;21757;43.610;1.440;2024-02-16T06:02:26;12.50;1.00
35635;DHT22;21757;43.610;1.440;2024-02-16T06:04:55;12.50;1.00
35635;DHT22;21757;43.610;1.440;2024-02-16T06:07:21;12.50;1.00
35635;DHT22;21757;43.610;1.440;2024-02-16T06:09:46;12.50;1.00
35635;DHT22;21757;43.610;1.440;2024-02-16T06:12:12;12.40;1.00
35635;DHT22;21757;43.610;1.440;2024-02-16T06:14:38;12.40;1.00
35635;DHT22;21757;43.610;1.440;2024-02-16T06:17:04;12.50;1.00
35635;DHT22;21757;43.610;1.440;2024-02-16T06:19:30;12.50;1.00
35635;DHT22;21757;43.610;1.440;2024-02-16T06:21:56;12.50;1.00
35635;DHT22;21757;43.610;1.440;2024-02-16T06:24:24;12.50;1.00
35635;DHT22;21757;43.610;1.440;2024-02-16T06:26:50;12.50;1.00
35635;DHT22;21757;43.610;1.440;2024-02-16T06:29:17;12.50;1.00
35635;DHT22;21757;43.610;1.440;2024-02-16T06:31:45;12.60;1.00
35635;DHT22;21757;43.610;1.440;2024-02-16T06:34:11;12.60;1.00
35635;DHT22;21757;43.610;1.440;2024-02-16T06:36:37;12.60;1.00
35635;DHT22;21757;43.610;1.440;2024-02-16T06:39:02;12.60;1.00
35635;DHT22;21757;43.610;1.440;2024-02-16T06:41:28;12.70;1.00
35635;DHT22;21757;43.610;1.440;2024-02-16T06:43:54;12.60;1.00
35635;DHT22;21757;43.610;1.440;2024-02-16T06:46:19;12.60;1.00
35635;DHT22;21757;43.610;1.440;2024-02-16T06:48:45;12.70;1.00
35635;DHT22;21757;43.610;1.440;2024-02-16T06:51:11;12.70;1.00
35635;DHT22;21757;43.610;1.440;2024-02-16T06:53:36;12.70;1.00
35635;DHT22;21757;43.610;1.440;2024-02-16T06:56:02;12.70;1.00
35635;DHT22;21757;43.610;1.440;2024-02-16T06:58:28;12.70;1.00
35635;DHT22;21757;43.610;1.440;2024-02-16T07:00:54;12.70;1.00
35635;DHT22;21757;43.610;1.440;2024-02-16T07:03:20;12.60;1.00
35635;DHT22;21757;43.610;1.440;2024-02-16T07:05:46;12.70;1.00
35635;DHT22;21757;43.610;1.440;2024-02-16T07:08:12;12.70;1.00
35635;DHT22;21757;43.610;1.440;2024-02-16T07:10:37;12.60;1.00
35635;DHT22;21757;43.610;1.440;2024-02-16T07:13:03;12.60;1.00
35635;DHT22;21757;43.610;1.440;2024-02-16T07:15:29;12.60;1.00
35635;DHT22;21757;43.610;1.440;2024-02-16T07:17:54;12.60;1.00
35635;DHT22;21757;43.610;1.440;2024-02-16T07:20:20;12.60;1.00
35635;DHT22;21757;43.610;1.440;2024-02-16T07:22:46;12.60;1.00
35635;DHT22;21757;43.610;1.440;2024-02-16T07:25:12;12.60;1.00
35635;DHT22;21757;43.610;1.440;2024-02-16T07:27:38;12.60;1.00
35635;DHT22;21757;43.610;1.440;2024-02-16T07:30:04;12.60;1.00
35635;DHT22;21757;43.610;1.440;2024-02-16T07:32:30;12.60;1.00
35635;DHT22;21757;43.610;1.440;2024-02-16T07:34:56;12.70;1.00
35635;DHT22;21757;43.610;1.440;2024-02-16T07:37:22;12.60;1.00
35635;DHT22;21757;43.610;1.440;2024-02-16T07:39:47;12.60;1.00
35635;DHT22;21757;43.610;1.440;2024-02-16T07:42:13;12.60;1.00
35635;DHT22;21757;43.610;1.440;2024-02-16T07:44:39;12.60;1.00
35635;DHT22;21757;43.610;1.440;2024-02-16T07:47:05;12.70;1.00
35635;DHT22;21757;43.610;1.440;2024-02-16T07:49:31;12.70;1.00
35635;DHT22;21757;43.610;1.440;2024-02-16T07:51:57;12.70;1.00
35635;DHT22;21757;43.610;1.440;2024-02-16T07:54:25;12.70;1.00
35635;DHT22;21757;43.610;1.440;2024-02-16T07:56:51;12.80;1.00
35635;DHT22;21757;43.610;1.440;2024-02-16T07:59:16;12.80;1.00
35635;DHT22;21757;43.610;1.440;2024-02-16T08:01:44;13.00;1.00
35635;DHT22;21757;43.610;1.440;2024-02-16T08:04:10;13.10;1.00
35635;DHT22;21757;43.610;1.440;2024-02-16T08:06:36;13.30;1.00
35635;DHT22;21757;43.610;1.440;2024-02-16T08:09:02;13.30;1.00
35635;DHT22;21757;43.610;1.440;2024-02-16T08:11:28;13.10;1.00
35635;DHT22;21757;43.610;1.440;2024-02-16T08:13:54;13.20;1.00
35635;DHT22;21757;43.610;1.440;2024-02-16T08:16:21;13.20;1.00
35635;DHT22;21757;43.610;1.440;2024-02-16T08:18:46;13.20;1.00
35635;DHT22;21757;43.610;1.440;2024-02-16T08:21:12;13.10;1.00
35635;DHT22;21757;43.610;1.440;2024-02-16T08:23:38;12.90;1.00
35635;DHT22;21757;43.610;1.440;2024-02-16T08:26:04;12.80;1.00
35635;DHT22;21757;43.610;1.440;2024-02-16T08:28:29;12.80;1.00
35635;DHT22;21757;43.610;1.440;2024-02-16T08:30:55;12.80;1.00
35635;DHT22;21757;43.610;1.440;2024-02-16T08:33:21;12.80;1.00
35635;DHT22;21757;43.610;1.440;2024-02-16T08:35:46;12.90;1.00
35635;DHT22;21757;43.610;1.440;2024-02-16T08:38:12;13.10;1.00
35635;DHT22;21757;43.610;1.440;2024-02-16T08:40:38;13.20;1.00
35635;DHT22;21757;43.610;1.440;2024-02-16T08:43:05;13.30;1.00
35635;DHT22;21757;43.610;1.440;2024-02-16T08:45:33;13.20;1.00
35635;DHT22;21757;43.610;1.440;2024-02-16T08:47:58;13.20;1.00
35635;DHT22;21757;43.610;1.440;2024-02-16T08:50:26;13.00;1.00
35635;DHT22;21757;43.610;1.440;2024-02-16T08:52:52;12.90;1.00
35635;DHT22;21757;43.610;1.440;2024-02-16T08:55:18;13.00;1.00
35635;DHT22;21757;43.610;1.440;2024-02-16T08:57:44;13.00;1.00
35635;DHT22;21757;43.610;1.440;2024-02-16T09:00:10;13.10;1.00
35635;DHT22;21757;43.610;1.440;2024-02-16T09:02:37;13.10;1.00
35635;DHT22;21757;43.610;1.440;2024-02-16T09:05:04;13.20;1.00
35635;DHT22;21757;43.610;1.440;2024-02-16T09:07:30;13.10;1.00
35635;DHT22;21757;43.610;1.440;2024-02-16T09:09:56;13.20;1.00
35635;DHT22;21757;43.610;1.440;2024-02-16T09:12:22;13.40;1.00
35635;DHT22;21757;43.610;1.440;2024-02-16T09:14:48;13.40;1.00
35635;DHT22;21757;43.610;1.440;2024-02-16T09:17:13;13.30;1.00
35635;DHT22;21757;43.610;1.440;2024-02-16T09:19:39;13.30;1.00
35635;DHT22;21757;43.610;1.440;2024-02-16T09:22:05;13.40;1.00
35635;DHT22;21757;43.610;1.440;2024-02-16T09:24:32;13.40;1.00
35635;DHT22;21757;43.610;1.440;2024-02-16T09:26:58;13.70;1.00
35635;DHT22;21757;43.610;1.440;2024-02-16T09:29:28;13.80;1.00
35635;DHT22;21757;43.610;1.440;2024-02-16T09:31:54;13.70;1.00
35635;DHT22;21757;43.610;1.440;2024-02-16T09:34:20;13.80;1.00
35635;DHT22;21757;43.610;1.440;2024-02-16T09:36:45;13.90;1.00
35635;DHT22;21757;43.610;1.440;2024-02-16T09:39:11;13.90;1.00
35635;DHT22;21757;43.610;1.440;2024-02-16T09:41:43;14.00;1.00
35635;DHT22;21757;43.610;1.440;2024-02-16T09:44:09;14.00;1.00
35635;DHT22;21757;43.610;1.440;2024-02-16T09:46:35;14.00;1.00
35635;DHT22;21757;43.610;1.440;2024-02-16T09:49:02;13.80;1.00
35635;DHT22;21757;43.610;1.440;2024-02-16T09:51:31;14.00;1.00
35635;DHT22;21757;43.610;1.440;2024-02-16T09:54:01;14.20;1.00
35635;DHT22;21757;43.610;1.440;2024-02-16T09:56:28;14.30;1.00
35635;DHT22;21757;43.610;1.440;2024-02-16T09:58:54;14.60;1.00
35635;DHT22;21757;43.610;1.440;2024-02-16T10:01:23;14.40;1.00
35635;DHT22;21757;43.610;1.440;2024-02-16T10:03:49;14.60;1.00
35635;DHT22;21757;43.610;1.440;2024-02-16T10:06:16;14.50;1.00
35635;DHT22;21757;43.610;1.440;2024-02-16T10:08:54;14.60;1.00
35635;DHT22;21757;43.610;1.440;2024-02-16T10:11:24;14.50;1.00
35635;DHT22;21757;43.610;1.440;2024-02-16T10:14:00;14.40;1.00
35635;DHT22;21757;43.610;1.440;2024-02-16T10:16:26;14.30;1.00
35635;DHT22;21757;43.610;1.440;2024-02-16T10:18:56;14.60;1.00
35635;DHT22;21757;43.610;1.440;2024-02-16T10:21:27;14.40;1.00
35635;DHT22;21757;43.610;1.440;2024-02-16T10:24:01;14.60;1.00
35635;DHT22;21757;43.610;1.440;2024-02-16T10:26:28;14.80;1.00
35635;DHT22;21757;43.610;1.440;2024-02-16T10:28:55;14.70;1.00
35635;DHT22;21757;43.610;1.440;2024-02-16T10:31:25;14.80;1.00
35635;DHT22;21757;43.610;1.440;2024-02-16T10:34:02;14.70;1.00
35635;DHT22;21757;43.610;1.440;2024-02-16T10:36:35;14.40;99.90
35635;DHT22;21757;43.610;1.440;2024-02-16T10:39:02;14.30;1.00
35635;DHT22;21757;43.610;1.440;2024-02-16T10:41:35;14.20;1.00
35635;DHT22;21757;43.610;1.440;2024-02-16T10:44:02;14.00;1.00
35635;DHT22;21757;43.610;1.440;2024-02-16T10:46:29;13.80;1.00
35635;DHT22;21757;43.610;1.440;2024-02-16T10:48:55;13.60;1.00
35635;DHT22;21757;43.610;1.440;2024-02-16T10:51:39;13.50;1.00
35635;DHT22;21757;43.610;1.440;2024-02-16T10:54:10;13.60;1.00
35635;DHT22;21757;43.610;1.440;2024-02-16T10:56:40;13.70;1.00
35635;DHT22;21757;43.610;1.440;2024-02-16T10:59:08;13.50;1.00
35635;DHT22;21757;43.610;1.440;2024-02-16T11:01:42;13.50;1.00
35635;DHT22;21757;43.610;1.440;2024-02-16T11:04:15;13.50;1.00
35635;DHT22;21757;43.610;1.440;2024-02-16T11:06:51;13.80;1.00
35635;DHT22;21757;43.610;1.440;2024-02-16T11:09:35;13.70;1.00
35635;DHT22;21757;43.610;1.440;2024-02-16T11:12:02;13.50;1.00
35635;DHT22;21757;43.610;1.440;2024-02-16T11:14:39;13.60;1.00
35635;DHT22;21757;43.610;1.440;2024-02-16T11:17:13;13.80;1.00
35635;DHT22;21757;43.610;1.440;2024-02-16T11:19:42;13.90;1.00
35635;DHT22;21757;43.610;1.440;2024-02-16T11:22:09;13.70;1.00
35635;DHT22;21757;43.610;1.440;2024-02-16T11:24:43;13.70;1.00
35635;DHT22;21757;43.610;1.440;2024-02-16T11:27:10;13.60;1.00
35635;DHT22;21757;43.610;1.440;2024-02-16T11:29:37;13.70;1.00
35635;DHT22;21757;43.610;1.440;2024-02-16T11:32:05;13.70;1.00
35635;DHT22;21757;43.610;1.440;2024-02-16T11:34:32;13.70;1.00
35635;DHT22;21757;43.610;1.440;2024-02-16T11:37:00;13.80;1.00
35635;DHT22;21757;43.610;1.440;2024-02-16T11:39:26;13.90;1.00
35635;DHT22;21757;43.610;1.440;2024-02-16T11:42:09;14.00;1.00
35635;DHT22;21757;43.610;1.440;2024-02-16T11:44:37;14.20;1.00
35635;DHT22;21757;43.610;1.440;2024-02-16T11:47:06;14.30;1.00
35635;DHT22;21757;43.610;1.440;2024-02-16T11:49:34;14.30;1.00
35635;DHT22;21757;43.610;1.440;2024-02-16T11:52:00;14.30;1.00
35635;DHT22;21757;43.610;1.440;2024-02-16T11:54:26;14.40;99.90
35635;DHT22;21757;43.610;1.440;2024-02-16T11:56:52;14.50;99.90
35635;DHT22;21757;43.610;1.440;2024-02-16T11:59:19;14.60;99.90
35635;DHT22;21757;43.610;1.440;2024-02-16T12:01:51;14.60;99.90
35635;DHT22;21757;43.610;1.440;2024-02-16T12:04:25;14.60;1.00
35635;DHT22;21757;43.610;1.440;2024-02-16T12:07:00;14.70;99.90
35635;DHT22;21757;43.610;1.440;2024-02-16T12:09:27;14.90;99.90
35635;DHT22;21757;43.610;1.440;2024-02-16T12:11:54;15.10;99.90
35635;DHT22;21757;43.610;1.440;2024-02-16T12:14:22;15.00;99.90
35635;DHT22;21757;43.610;1.440;2024-02-16T12:16:49;14.90;99.90
35635;DHT22;21757;43.610;1.440;2024-02-16T12:19:15;14.60;99.90
35635;DHT22;21757;43.610;1.440;2024-02-16T12:21:41;14.50;99.90
35635;DHT22;21757;43.610;1.440;2024-02-16T12:24:07;14.50;99.90
35635;DHT22;21757;43.610;1.440;2024-02-16T12:26:33;14.20;99.90
35635;DHT22;21757;43.610;1.440;2024-02-16T12:28:58;14.20;99.90
35635;DHT22;21757;43.610;1.440;2024-02-16T12:31:24;14.50;99.90
35635;DHT22;21757;43.610;1.440;2024-02-16T12:33:52;14.60;99.90
35635;DHT22;21757;43.610;1.440;2024-02-16T12:36:18;14.30;99.90
35635;DHT22;21757;43.610;1.440;2024-02-16T12:38:45;14.10;99.90
35635;DHT22;21757;43.610;1.440;2024-02-16T12:41:11;14.20;99.90
35635;DHT22;21757;43.610;1.440;2024-02-16T12:43:36;14.30;99.90
35635;DHT22;21757;43.610;1.440;2024-02-16T12:46:02;14.50;99.90
35635;DHT22;21757;43.610;1.440;2024-02-16T12:48:29;14.70;99.90
35635;DHT22;21757;43.610;1.440;2024-02-16T12:50:55;14.70;99.90
35635;DHT22;21757;43.610;1.440;2024-02-16T12:53:22;14.70;99.90
35635;DHT22;21757;43.610;1.440;2024-02-16T12:55:50;14.70;99.90
35635;DHT22;21757;43.610;1.440;2024-02-16T12:58:16;14.60;99.90
35635;DHT22;21757;43.610;1.440;2024-02-16T13:00:41;14.50;99.90
35635;DHT22;21757;43.610;1.440;2024-02-16T13:03:07;14.30;99.90
35635;DHT22;21757;43.610;1.440;2024-02-16T13:05:33;14.60;99.90
35635;DHT22;21757;43.610;1.440;2024-02-16T13:07:59;14.60;99.90
35635;DHT22;21757;43.610;1.440;2024-02-16T13:10:25;14.80;99.90
35635;DHT22;21757;43.610;1.440;2024-02-16T13:12:50;14.80;99.90
35635;DHT22;21757;43.610;1.440;2024-02-16T13:15:16;14.70;99.90
35635;DHT22;21757;43.610;1.440;2024-02-16T13:17:42;14.70;99.90
35635;DHT22;21757;43.610;1.440;2024-02-16T13:20:09;14.60;99.90
35635;DHT22;21757;43.610;1.440;2024-02-16T13:22:38;14.70;99.90
35635;DHT22;21757;43.610;1.440;2024-02-16T13:25:05;14.70;99.90
35635;DHT22;21757;43.610;1.440;2024-02-16T13:27:33;14.90;99.90
35635;DHT22;21757;43.610;1.440;2024-02-16T13:30:02;14.80;99.90
35635;DHT22;21757;43.610;1.440;2024-02-16T13:32:28;14.70;99.90
35635;DHT22;21757;43.610;1.440;2024-02-16T13:34:54;14.50;99.90
35635;DHT22;21757;43.610;1.440;2024-02-16T13:37:19;14.70;99.90
35635;DHT22;21757;43.610;1.440;2024-02-16T13:39:45;15.00;99.90
35635;DHT22;21757;43.610;1.440;2024-02-16T13:42:12;14.90;99.90
35635;DHT22;21757;43.610;1.440;2024-02-16T13:44:38;14.70;99.90
35635;DHT22;21757;43.610;1.440;2024-02-16T13:47:05;14.90;99.90
35635;DHT22;21757;43.610;1.440;2024-02-16T13:49:31;14.90;99.90
35635;DHT22;21757;43.610;1.440;2024-02-16T13:51:57;15.00;99.90
35635;DHT22;21757;43.610;1.440;2024-02-16T13:54:25;14.80;99.90
35635;DHT22;21757;43.610;1.440;2024-02-16T13:56:50;15.00;99.90
35635;DHT22;21757;43.610;1.440;2024-02-16T13:59:16;15.00;99.90
35635;DHT22;21757;43.610;1.440;2024-02-16T14:01:42;14.80;99.90
35635;DHT22;21757;43.610;1.440;2024-02-16T14:04:08;14.60;99.90
35635;DHT22;21757;43.610;1.440;2024-02-16T14:06:34;14.50;99.90
35635;DHT22;21757;43.610;1.440;2024-02-16T14:09:02;14.30;99.90
35635;DHT22;21757;43.610;1.440;2024-02-16T14:11:37;14.30;99.90
35635;DHT22;21757;43.610;1.440;2024-02-16T14:14:04;14.20;99.90
35635;DHT22;21757;43.610;1.440;2024-02-16T14:16:31;14.00;99.90
35635;DHT22;21757;43.610;1.440;2024-02-16T14:18:57;13.80;99.90
35635;DHT22;21757;43.610;1.440;2024-02-16T14:21:22;13.80;99.90
35635;DHT22;21757;43.610;1.440;2024-02-16T14:23:48;13.90;99.90
35635;DHT22;21757;43.610;1.440;2024-02-16T14:26:14;13.90;99.90
35635;DHT22;21757;43.610;1.440;2024-02-16T14:28:39;14.00;99.90
35635;DHT22;21757;43.610;1.440;2024-02-16T14:31:05;14.00;99.90
35635;DHT22;21757;43.610;1.440;2024-02-16T14:33:32;14.00;99.90
35635;DHT22;21757;43.610;1.440;2024-02-16T14:35:57;14.00;99.90
35635;DHT22;21757;43.610;1.440;2024-02-16T14:38:23;13.90;99.90
35635;DHT22;21757;43.610;1.440;2024-02-16T14:40:49;13.80;99.90
35635;DHT22;21757;43.610;1.440;2024-02-16T14:43:15;13.90;99.90
35635;DHT22;21757;43.610;1.440;2024-02-16T14:45:40;13.80;99.90
35635;DHT22;21757;43.610;1.440;2024-02-16T14:48:07;13.80;99.90
35635;DHT22;21757;43.610;1.440;2024-02-16T14:50:32;13.70;99.90
35635;DHT22;21757;43.610;1.440;2024-02-16T14:52:58;13.70;99.90
35635;DHT22;21757;43.610;1.440;2024-02-16T14:55:25;13.80;99.90
35635;DHT22;21757;43.610;1.440;2024-02-16T14:57:51;13.80;99.90
35635;DHT22;21757;43.610;1.440;2024-02-16T15:00:17;13.60;99.90
35635;DHT22;21757;43.610;1.440;2024-02-16T15:02:44;13.70;99.90
35635;DHT22;21757;43.610;1.440;2024-02-16T15:05:09;13.60;99.90
35635;DHT22;21757;43.610;1.440;2024-02-16T15:07:35;13.70;99.90
35635;DHT22;21757;43.610;1.440;2024-02-16T15:10:02;13.70;99.90
35635;DHT22;21757;43.610;1.440;2024-02-16T15:12:28;13.70;99.90
35635;DHT22;21757;43.610;1.440;2024-02-16T15:14:54;13.60;99.90
35635;DHT22;21757;43.610;1.440;2024-02-16T15:17:20;13.60;99.90
35635;DHT22;21757;43.610;1.440;2024-02-16T15:19:47;13.60;99.90
35635;DHT22;21757;43.610;1.440;2024-02-16T15:22:12;13.60;99.90
35635;DHT22;21757;43.610;1.440;2024-02-16T15:24:38;13.60;99.90
35635;DHT22;21757;43.610;1.440;2024-02-16T15:27:04;13.40;99.90
35635;DHT22;21757;43.610;1.440;2024-02-16T15:29:31;13.40;99.90
35635;DHT22;21757;43.610;1.440;2024-02-16T15:31:58;13.40;99.90
35635;DHT22;21757;43.610;1.440;2024-02-16T15:34:26;13.40;99.90
35635;DHT22;21757;43.610;1.440;2024-02-16T15:36:55;13.50;99.90